Impacts METAR Board
IDs:

KDAB - Daytona Beach Intl, FL, US

Updated at: 0000 UTC 05 Jul 2022
Potential Impact None Slight Moderate High
Time 04/12Z 04/13Z 04/14Z 04/15Z 04/16Z 04/17Z 04/18Z 04/19Z 04/20Z 04/21Z 04/22Z 04/23Z 05/00Z
Temp76 81 85 86 77 79 78 79 76 77 77 77 77
Dewpt75 75 75 72 71 74 74 75 69 71 71 72 72
Altim30.12 30.14 30.14 30.14 30.14 30.13 30.11 30.10 30.09 30.08 30.07 30.07 30.07
VIS6 10 10 10 10 10 7 10 10 10 10 10 10
CIG-- -- -- -- 50 250 250 -- -- -- -- -- --
CoverFEWFEWFEWFEWBKNBKNBKNSCTSCTSCTFEWFEWFEW
FltCatVFRVFRVFRVFRVFRVFRVFRVFRVFRVFRVFRVFRVFR
WXBR----------+RA------------
WDir02502602600100011010011011000
WSpd0 3 6 4 0 5 0 8 8 9 7 4 3
WGst-- -- -- -- -- -- -- -- -- 14 -- -- --
R07/25
XWnd VRB 0 2 1 VRB -3 VRB -6 -5 -6 -5 VRB VRB
XGst -- -- -- -- -- -- -- -- -- -10 -- -- --
R16/34
XWnd VRB -3 -6 -4 VRB 4 VRB 6 7 7 5 VRB VRB
XGst -- -- -- -- -- -- -- -- -- 10 -- -- --
Raw hourly METARs
KDAB 041153Z 00000KT 6SM BR FEW003 FEW040 FEW250 24/24 A3012 RMK AO2 SLP199 70011 T02440239 10244 20228 53011
KDAB 041253Z 25003KT 10SM FEW040 FEW250 27/24 A3014 RMK AO2 SLP205 T02720239
KDAB 041353Z 26006KT 10SM FEW030 FEW250 29/24 A3014 RMK AO2 SLP204 T02940239
KDAB 041453Z 26004KT 10SM FEW020 FEW250 30/22 A3014 RMK AO2 SLP207 T03000222 51007
KDAB 041553Z 00000KT 10SM SCT031 SCT040 BKN050 BKN250 25/22 A3014 RMK AO2 SLP206 T02500217
KDAB 041653Z 10005KT 10SM FEW041 SCT055 BKN250 26/23 A3013 RMK AO2 SLP202 T02610233
KDAB 041753Z 00000KT 7SM +RA SCT031 SCT040 SCT060 BKN250 26/23 A3011 RMK AO2 RAB47 SLP196 P0001 60001 T02560233 10300 20244 58010
KDAB 041853Z 11008KT 10SM FEW031 FEW100 SCT250 26/24 A3010 RMK AO2 RAE18 SLP191 P0006 T02610239
KDAB 041953Z 10008KT 10SM FEW030 FEW100 SCT250 24/21 A3009 RMK AO2 SLP189 T02440206
KDAB 042053Z 11009G14KT 10SM FEW030 FEW100 SCT250 25/22 A3008 RMK AO2 SLP184 CB DSNT W 60006 T02500217 58013
KDAB 042153Z 11007KT 10SM FEW030 FEW100 25/22 A3007 RMK AO2 SLP180 CB DSNT SW NW T02500217
KDAB 042253Z COR VRB04KT 10SM FEW030 FEW100 25/22 A3007 RMK AO2 SLP182 T02500222
KDAB 042353Z VRB03KT 10SM FEW030 FEW100 25/22 A3007 RMK AO2 SLP182 60006 T02500222 10267 20244 56002



Page loaded:  00:44 UTC  |   05:44 PM Pacific  |   06:44 PM Mountain  |   07:44 PM Central  |   08:44 PM Eastern

 

ADVISORIES

FORECASTS

FORECASTS

OBSERVATIONS

USER TOOLS

ABOUT US